createdAt,value
2018-08-30T00:01:10.378Z,11.43
2018-08-30T00:03:38.765Z,12.10
2018-08-30T00:06:07.183Z,14.00
2018-08-30T00:08:35.581Z,14.07
2018-08-30T00:11:04.047Z,14.50
2018-08-30T00:13:32.424Z,14.60
2018-08-30T00:16:00.773Z,16.77
2018-08-30T00:18:29.212Z,14.57
2018-08-30T00:20:57.612Z,18.43
2018-08-30T00:23:25.926Z,14.33
2018-08-30T00:25:54.316Z,14.73
2018-08-30T00:28:22.676Z,20.83
2018-08-30T00:30:51.050Z,21.73
2018-08-30T00:33:19.527Z,18.20
2018-08-30T00:35:47.842Z,16.00
2018-08-30T00:38:16.177Z,18.20
2018-08-30T00:41:15.232Z,17.93
2018-08-30T00:43:43.568Z,21.30
2018-08-30T00:46:11.899Z,14.87
2018-08-30T00:48:40.256Z,17.40
2018-08-30T00:51:08.626Z,20.53
2018-08-30T00:53:36.977Z,16.83
2018-08-30T00:56:05.313Z,19.03
2018-08-30T00:58:33.611Z,18.70
2018-08-30T01:01:02.189Z,29.53
2018-08-30T01:03:30.587Z,17.77
2018-08-30T01:05:58.979Z,23.17
2018-08-30T01:08:27.476Z,17.67
2018-08-30T01:10:55.871Z,19.30
2018-08-30T01:13:24.520Z,22.47
2018-08-30T01:15:52.946Z,19.80
2018-08-30T01:18:21.430Z,19.27
2018-08-30T01:20:49.853Z,21.33
2018-08-30T01:23:18.299Z,19.63
2018-08-30T01:25:46.703Z,26.13
2018-08-30T01:28:15.061Z,26.67
2018-08-30T01:30:43.500Z,26.93
2018-08-30T01:33:11.940Z,29.73
2018-08-30T01:35:40.284Z,29.30
2018-08-30T01:38:08.639Z,29.83
2018-08-30T01:40:37.056Z,35.23
2018-08-30T01:43:05.708Z,37.90
2018-08-30T01:45:34.075Z,39.50
2018-08-30T01:48:02.423Z,41.90
2018-08-30T01:50:30.983Z,44.90
2018-08-30T01:52:59.363Z,48.03
2018-08-30T01:55:27.800Z,45.47
2018-08-30T01:57:56.156Z,52.13
2018-08-30T02:00:24.501Z,52.50
2018-08-30T02:02:52.834Z,53.47
2018-08-30T02:05:21.132Z,55.50
2018-08-30T02:07:49.568Z,53.07
2018-08-30T02:10:17.870Z,57.07
2018-08-30T02:12:46.347Z,59.70
2018-08-30T02:15:14.676Z,60.73
2018-08-30T02:17:43.099Z,54.53
2018-08-30T02:20:11.474Z,60.33
2018-08-30T02:22:39.866Z,60.23
2018-08-30T02:25:08.269Z,59.93
2018-08-30T02:27:36.657Z,59.27
2018-08-30T02:30:05.148Z,61.63
2018-08-30T02:32:33.477Z,63.23
2018-08-30T02:35:02.115Z,63.20
2018-08-30T02:37:30.465Z,64.13
2018-08-30T02:39:58.805Z,64.77
2018-08-30T02:42:27.182Z,59.93
2018-08-30T02:44:55.507Z,55.33
2018-08-30T02:47:23.849Z,59.47
2018-08-30T02:49:52.223Z,57.93
2018-08-30T02:52:20.593Z,58.60
2018-08-30T02:54:49.133Z,59.50
2018-08-30T02:57:17.529Z,60.43
2018-08-30T03:02:44.928Z,60.50
2018-08-30T03:05:13.304Z,61.83
2018-08-30T03:07:41.682Z,64.87
2018-08-30T03:10:10.144Z,66.33
2018-08-30T03:12:38.550Z,65.37
2018-08-30T03:15:14.320Z,63.83
2018-08-30T03:17:43.022Z,62.63
2018-08-30T03:20:12.832Z,53.97
2018-08-30T03:22:41.975Z,57.80
2018-08-30T03:25:10.493Z,54.53
2018-08-30T03:27:38.921Z,55.27
2018-08-30T03:30:08.188Z,57.27
2018-08-30T03:32:36.742Z,56.37
2018-08-30T03:35:05.140Z,57.30
2018-08-30T03:37:33.712Z,57.77
2018-08-30T03:40:02.115Z,58.63
2018-08-30T03:42:30.456Z,64.50
2018-08-30T03:44:59.371Z,65.30
2018-08-30T03:47:27.721Z,69.53
2018-08-30T03:49:56.293Z,66.57
2018-08-30T03:52:24.657Z,69.23
2018-08-30T03:54:52.991Z,69.67
2018-08-30T03:57:21.336Z,67.80
2018-08-30T03:59:49.654Z,71.53
2018-08-30T04:02:18.075Z,67.37
2018-08-30T04:04:46.516Z,70.53
2018-08-30T04:07:14.878Z,67.80
2018-08-30T04:09:43.693Z,65.73
2018-08-30T04:12:11.990Z,64.43
2018-08-30T04:14:40.610Z,65.70
2018-08-30T04:17:09.345Z,65.93
2018-08-30T04:19:37.703Z,63.67
2018-08-30T04:22:07.027Z,52.97
2018-08-30T04:24:35.441Z,55.07
2018-08-30T04:27:03.878Z,57.20
2018-08-30T04:29:32.409Z,61.27
2018-08-30T04:32:00.798Z,52.23
2018-08-30T04:34:29.168Z,49.23
2018-08-30T04:36:57.951Z,45.07
2018-08-30T04:39:26.335Z,45.23
2018-08-30T04:41:54.932Z,47.53
2018-08-30T04:44:23.348Z,53.53
2018-08-30T04:46:52.781Z,49.10
2018-08-30T04:49:22.065Z,49.67
2018-08-30T04:51:50.443Z,43.50
2018-08-30T04:54:18.852Z,43.27
2018-08-30T04:56:47.226Z,40.27
2018-08-30T04:59:15.580Z,43.40
2018-08-30T05:01:43.958Z,40.50
2018-08-30T05:04:12.551Z,38.23
2018-08-30T05:06:40.955Z,38.90
2018-08-30T05:09:11.144Z,34.67
2018-08-30T05:11:39.552Z,37.83
2018-08-30T05:14:10.004Z,44.63
2018-08-30T05:16:38.972Z,37.93
2018-08-30T05:19:07.679Z,38.77
2018-08-30T05:21:36.579Z,39.43
2018-08-30T05:24:05.611Z,40.63
2018-08-30T05:26:34.023Z,39.83
2018-08-30T05:29:02.737Z,37.20
2018-08-30T05:31:31.514Z,35.57
2018-08-30T05:34:00.271Z,35.77
2018-08-30T05:36:28.845Z,38.03
2018-08-30T05:38:57.425Z,35.17
2018-08-30T05:41:25.889Z,34.80
2018-08-30T05:43:54.619Z,36.20
2018-08-30T05:46:23.336Z,40.57
2018-08-30T05:48:51.696Z,36.33
2018-08-30T05:51:20.269Z,37.37
2018-08-30T05:53:48.728Z,43.37
2018-08-30T05:56:17.459Z,40.47
2018-08-30T05:58:45.881Z,43.27
2018-08-30T06:01:14.358Z,40.73
2018-08-30T06:03:42.850Z,39.33
2018-08-30T06:06:11.213Z,40.27
2018-08-30T06:08:39.874Z,40.90
2018-08-30T06:11:08.264Z,40.27
2018-08-30T06:13:36.904Z,39.53
2018-08-30T06:16:06.020Z,42.13
2018-08-30T06:18:34.479Z,35.40
2018-08-30T06:21:02.828Z,34.77
2018-08-30T06:23:31.336Z,34.10
2018-08-30T06:26:00.358Z,36.47
2018-08-30T06:28:29.078Z,35.23
2018-08-30T06:30:58.172Z,36.03
2018-08-30T06:33:26.494Z,37.30
2018-08-30T06:35:54.891Z,35.23
2018-08-30T06:38:23.340Z,35.83
2018-08-30T06:40:52.102Z,38.00
2018-08-30T06:43:21.019Z,38.60
2018-08-30T06:45:49.625Z,34.10
2018-08-30T06:48:18.501Z,36.00
2018-08-30T06:50:46.998Z,35.63
2018-08-30T06:53:15.687Z,33.40
2018-08-30T06:55:44.255Z,34.83
2018-08-30T06:58:12.951Z,37.90
2018-08-30T07:00:41.317Z,35.17
2018-08-30T07:03:09.820Z,38.80
2018-08-30T07:05:38.217Z,31.40
2018-08-30T07:08:06.761Z,36.63
2018-08-30T07:10:35.087Z,39.53
2018-08-30T07:13:03.525Z,34.43
2018-08-30T07:15:32.781Z,38.23
2018-08-30T07:18:01.293Z,36.07
2018-08-30T07:20:29.656Z,38.67
2018-08-30T07:22:58.465Z,37.47
2018-08-30T07:25:26.808Z,41.57
2018-08-30T07:27:55.260Z,37.53
2018-08-30T07:30:23.688Z,35.60
2018-08-30T07:32:52.187Z,35.17
2018-08-30T07:35:20.631Z,37.33
2018-08-30T07:37:49.507Z,37.20
2018-08-30T07:40:18.116Z,34.10
2018-08-30T07:42:46.734Z,38.37
2018-08-30T07:45:15.415Z,37.17
2018-08-30T07:47:43.989Z,32.37
2018-08-30T07:50:12.645Z,32.37
2018-08-30T07:52:41.120Z,25.13
2018-08-30T07:55:10.011Z,25.00
2018-08-30T07:57:38.717Z,22.60
2018-08-30T08:00:07.791Z,29.10
2018-08-30T08:02:36.319Z,28.37
2018-08-30T08:05:04.749Z,28.87
2018-08-30T08:07:33.609Z,30.37
2018-08-30T08:10:02.027Z,31.97
2018-08-30T08:12:31.144Z,33.87
2018-08-30T08:15:00.083Z,39.17
2018-08-30T08:17:29.039Z,41.90
2018-08-30T08:19:57.735Z,43.53
2018-08-30T08:22:26.503Z,38.77
2018-08-30T08:24:56.638Z,44.10
2018-08-30T08:27:25.396Z,43.47
2018-08-30T08:29:54.509Z,43.47
2018-08-30T08:32:22.911Z,42.57
2018-08-30T08:34:51.627Z,41.37
2018-08-30T08:37:20.081Z,51.13
2018-08-30T08:39:49.484Z,40.17
2018-08-30T08:42:17.928Z,42.73
2018-08-30T08:44:46.720Z,41.77
2018-08-30T08:47:15.384Z,43.80
2018-08-30T08:49:43.831Z,43.97
2018-08-30T08:52:12.682Z,40.97
2018-08-30T08:54:41.035Z,40.43
2018-08-30T08:57:09.805Z,42.20
2018-08-30T08:59:38.462Z,41.07
2018-08-30T09:02:06.795Z,41.10
2018-08-30T09:04:35.430Z,45.70
2018-08-30T09:07:04.152Z,45.57
2018-08-30T09:09:32.539Z,41.30
2018-08-30T09:12:00.927Z,39.10
2018-08-30T09:14:29.591Z,56.83
2018-08-30T09:16:58.344Z,41.07
2018-08-30T09:19:27.118Z,41.03
2018-08-30T09:21:55.737Z,38.80
2018-08-30T09:24:24.172Z,42.27
2018-08-30T09:26:53.069Z,43.27
2018-08-30T09:29:21.851Z,40.53
2018-08-30T09:31:50.220Z,45.57
2018-08-30T09:34:19.351Z,40.47
2018-08-30T09:36:47.957Z,39.20
2018-08-30T09:39:17.303Z,41.20
2018-08-30T09:41:45.986Z,39.03
2018-08-30T09:44:14.644Z,37.33
2018-08-30T09:46:43.683Z,37.37
2018-08-30T09:49:12.226Z,38.60
2018-08-30T09:51:40.678Z,37.73
2018-08-30T09:54:09.081Z,38.90
2018-08-30T09:56:37.818Z,38.33
2018-08-30T09:59:06.420Z,37.50
2018-08-30T10:01:40.328Z,36.63
2018-08-30T10:04:09.388Z,34.57
2018-08-30T10:06:38.055Z,32.97
2018-08-30T10:09:09.099Z,32.80
2018-08-30T10:11:37.599Z,33.10
2018-08-30T10:14:06.353Z,31.50
2018-08-30T10:16:35.238Z,27.90
2018-08-30T10:19:03.879Z,31.80
2018-08-30T10:21:32.841Z,30.23
2018-08-30T10:24:01.531Z,29.60
2018-08-30T10:26:31.353Z,27.77
2018-08-30T10:29:00.132Z,29.50
2018-08-30T10:31:28.920Z,22.97
2018-08-30T10:33:57.574Z,27.97
2018-08-30T10:36:25.937Z,25.07
2018-08-30T10:38:55.062Z,30.03
2018-08-30T10:41:23.685Z,27.07
2018-08-30T10:43:52.657Z,29.97
2018-08-30T10:46:22.318Z,30.23
2018-08-30T10:48:51.530Z,24.97
2018-08-30T10:51:20.335Z,23.47
2018-08-30T10:53:48.996Z,25.13
2018-08-30T10:56:18.012Z,27.70
2018-08-30T10:58:46.699Z,22.27
2018-08-30T11:01:15.693Z,20.07
2018-08-30T11:03:44.477Z,23.80
2018-08-30T11:06:12.925Z,21.77
2018-08-30T11:08:41.263Z,23.53
2018-08-30T11:11:09.901Z,20.30
2018-08-30T11:13:38.371Z,23.03
2018-08-30T11:16:06.944Z,19.90
2018-08-30T11:18:35.481Z,20.57
2018-08-30T11:21:04.312Z,20.73
2018-08-30T11:23:32.948Z,23.40
2018-08-30T11:26:01.821Z,18.60
2018-08-30T11:28:30.373Z,20.97
2018-08-30T11:30:58.713Z,19.23
2018-08-30T11:33:27.330Z,22.20
2018-08-30T11:35:55.667Z,25.67
2018-08-30T11:38:24.354Z,19.13
2018-08-30T11:40:52.938Z,18.13
2018-08-30T11:43:21.448Z,19.47
2018-08-30T11:45:49.837Z,18.63
2018-08-30T11:48:18.358Z,18.90
2018-08-30T11:50:46.767Z,18.27
2018-08-30T11:53:15.152Z,17.87
2018-08-30T11:55:43.689Z,18.10
2018-08-30T11:58:12.172Z,20.87
2018-08-30T12:00:40.777Z,17.30
2018-08-30T12:03:09.344Z,16.90
2018-08-30T12:05:38.034Z,16.80
2018-08-30T12:08:07.942Z,19.43
2018-08-30T12:10:39.113Z,19.33
2018-08-30T12:13:07.885Z,20.17
2018-08-30T12:15:36.678Z,19.67
2018-08-30T12:18:05.712Z,18.73
2018-08-30T12:20:35.058Z,20.27
2018-08-30T12:23:04.668Z,17.37
2018-08-30T12:25:34.061Z,20.93
2018-08-30T12:28:02.566Z,19.93
2018-08-30T12:30:31.333Z,19.07
2018-08-30T12:33:00.148Z,22.53
2018-08-30T12:35:29.476Z,26.07
2018-08-30T12:37:59.630Z,24.50
2018-08-30T12:40:30.166Z,23.93
2018-08-30T12:42:59.544Z,27.93
2018-08-30T12:45:28.434Z,23.87
2018-08-30T12:47:59.021Z,28.33
2018-08-30T12:50:29.037Z,26.20
2018-08-30T12:52:58.423Z,24.20
2018-08-30T12:55:27.851Z,23.00
2018-08-30T12:57:58.277Z,21.87
2018-08-30T13:00:28.120Z,18.87
2018-08-30T13:02:57.810Z,15.53
2018-08-30T13:05:28.005Z,16.77
2018-08-30T13:07:58.264Z,20.30
2018-08-30T13:10:27.802Z,25.40
2018-08-30T13:12:56.291Z,19.57
2018-08-30T13:15:26.225Z,23.03
2018-08-30T13:17:56.596Z,22.37
2018-08-30T13:20:26.163Z,23.20
2018-08-30T13:22:55.432Z,21.53
2018-08-30T13:25:24.935Z,21.80
2018-08-30T13:27:54.363Z,20.57
2018-08-30T13:30:25.181Z,22.60
2018-08-30T13:32:54.675Z,22.67
2018-08-30T13:35:24.307Z,23.53
2018-08-30T13:37:53.678Z,18.23
2018-08-30T13:40:22.870Z,24.33
2018-08-30T13:42:51.690Z,23.43
2018-08-30T13:45:21.523Z,19.23
2018-08-30T13:47:50.760Z,20.37
2018-08-30T13:50:20.483Z,22.80
2018-08-30T13:52:49.066Z,20.50
2018-08-30T13:55:19.050Z,21.97
2018-08-30T13:57:49.346Z,20.57
2018-08-30T14:00:19.733Z,18.60
2018-08-30T14:02:49.221Z,19.27
2018-08-30T14:05:19.066Z,17.50
2018-08-30T14:07:49.472Z,19.30
2018-08-30T14:10:20.117Z,19.60
2018-08-30T14:12:49.731Z,19.57
2018-08-30T14:15:19.322Z,21.37
2018-08-30T14:17:48.620Z,27.17
2018-08-30T14:20:18.145Z,19.97
2018-08-30T14:22:47.977Z,21.50
2018-08-30T14:25:17.787Z,20.40
2018-08-30T14:27:47.385Z,20.80
2018-08-30T14:30:16.734Z,21.23
2018-08-30T14:32:48.122Z,17.87
2018-08-30T14:35:17.507Z,24.07
2018-08-30T14:37:46.927Z,19.73
2018-08-30T14:40:16.433Z,17.50
2018-08-30T14:42:45.930Z,21.53
2018-08-30T14:45:15.852Z,17.10
2018-08-30T14:47:46.329Z,16.47
2018-08-30T14:50:15.408Z,14.43
2018-08-30T14:52:44.787Z,12.70
2018-08-30T14:55:14.067Z,13.70
2018-08-30T14:57:43.451Z,12.83
2018-08-30T15:00:13.474Z,12.90
2018-08-30T15:02:43.772Z,15.37
2018-08-30T15:05:13.239Z,14.47
2018-08-30T15:07:42.882Z,15.43
2018-08-30T15:10:12.686Z,15.33
2018-08-30T15:12:41.642Z,17.43
2018-08-30T15:15:11.601Z,16.07
2018-08-30T15:17:41.642Z,18.73
2018-08-30T15:20:11.243Z,13.50
2018-08-30T15:22:41.826Z,13.90
2018-08-30T15:25:12.002Z,17.00
2018-08-30T15:27:41.392Z,13.00
2018-08-30T15:30:11.096Z,11.37
2018-08-30T15:32:40.410Z,11.63
2018-08-30T15:35:09.642Z,10.23
2018-08-30T15:37:39.286Z,11.50
2018-08-30T15:40:08.808Z,9.40
2018-08-30T15:42:39.580Z,9.10
2018-08-30T15:45:10.110Z,11.03
2018-08-30T15:47:39.806Z,7.73
2018-08-30T15:50:09.546Z,9.77
2018-08-30T15:52:39.366Z,10.03
2018-08-30T15:55:09.478Z,10.40
2018-08-30T15:57:38.987Z,9.70
2018-08-30T16:00:08.609Z,8.87
2018-08-30T16:02:38.210Z,9.93
2018-08-30T16:05:08.238Z,15.87
2018-08-30T16:07:37.082Z,10.50
2018-08-30T16:10:07.839Z,9.83
2018-08-30T16:12:37.956Z,17.17
2018-08-30T16:15:07.271Z,11.83
2018-08-30T16:17:37.145Z,11.53
2018-08-30T16:20:07.321Z,11.23
2018-08-30T16:22:46.726Z,10.67
2018-08-30T16:25:16.671Z,14.30
2018-08-30T16:27:47.242Z,13.47
2018-08-30T16:30:16.843Z,18.17
2018-08-30T16:32:46.822Z,13.83
2018-08-30T16:35:16.421Z,17.03
2018-08-30T16:37:45.933Z,9.67
2018-08-30T16:40:15.583Z,10.27
2018-08-30T16:42:45.791Z,12.13
2018-08-30T16:45:15.093Z,17.30
2018-08-30T16:47:44.692Z,13.87
2018-08-30T16:50:14.933Z,14.13
2018-08-30T16:52:45.385Z,13.50
2018-08-30T16:55:14.677Z,13.90
2018-08-30T16:57:44.312Z,11.47
2018-08-30T17:00:13.944Z,17.03
2018-08-30T17:02:44.080Z,13.20
2018-08-30T17:05:14.199Z,16.70
2018-08-30T17:07:43.582Z,15.07
2018-08-30T17:10:13.500Z,12.47
2018-08-30T17:15:14.422Z,11.83
2018-08-30T17:17:44.269Z,12.93
2018-08-30T17:20:49.468Z,12.50
2018-08-30T17:23:20.020Z,10.50
2018-08-30T17:25:48.778Z,15.23
2018-08-30T17:28:17.194Z,12.10
2018-08-30T17:30:45.663Z,10.27
2018-08-30T17:33:14.077Z,16.97
2018-08-30T17:35:42.484Z,15.00
2018-08-30T17:38:10.916Z,12.60
2018-08-30T17:40:39.319Z,18.03
2018-08-30T17:43:07.719Z,11.53
2018-08-30T17:45:37.070Z,11.03
2018-08-30T17:48:05.747Z,23.00
2018-08-30T17:50:34.240Z,12.00
2018-08-30T17:53:02.496Z,11.20
2018-08-30T17:55:32.409Z,24.07
2018-08-30T17:58:02.633Z,16.10
2018-08-30T18:00:32.953Z,9.53
2018-08-30T18:03:02.736Z,19.07
2018-08-30T18:05:32.764Z,22.53
2018-08-30T18:08:02.195Z,13.47
2018-08-30T18:10:31.580Z,18.67
2018-08-30T18:13:01.378Z,14.83
2018-08-30T18:15:31.114Z,13.57
2018-08-30T18:18:00.812Z,17.70
2018-08-30T18:20:31.830Z,15.50
2018-08-30T18:23:01.548Z,17.30
2018-08-30T18:25:30.021Z,21.07
2018-08-30T18:27:59.396Z,18.13
2018-08-30T18:30:28.891Z,10.67
2018-08-30T18:32:58.440Z,15.73
2018-08-30T18:35:28.856Z,11.63
2018-08-30T18:37:58.563Z,12.47
2018-08-30T18:40:29.137Z,13.13
2018-08-30T18:42:58.717Z,12.70
2018-08-30T18:45:28.208Z,14.30
2018-08-30T18:47:58.843Z,13.87
2018-08-30T18:50:29.374Z,15.10
2018-08-30T18:52:58.973Z,16.13
2018-08-30T18:55:29.012Z,15.27
2018-08-30T18:57:59.122Z,16.67
2018-08-30T19:00:28.588Z,12.87
2018-08-30T19:03:00.570Z,14.53
2018-08-30T19:05:29.810Z,16.57
2018-08-30T19:07:59.931Z,16.13
2018-08-30T19:10:29.930Z,13.43
2018-08-30T19:13:00.774Z,13.87
2018-08-30T19:15:36.302Z,14.47
2018-08-30T19:18:11.353Z,11.23
2018-08-30T19:20:41.633Z,16.07
2018-08-30T19:23:10.693Z,12.00
2018-08-30T19:25:40.639Z,12.33
2018-08-30T19:28:10.510Z,14.60
2018-08-30T19:30:40.089Z,16.90
2018-08-30T19:33:09.883Z,18.10
2018-08-30T19:35:44.354Z,17.10
2018-08-30T19:38:13.448Z,11.97
2018-08-30T19:40:48.420Z,14.83
2018-08-30T19:43:17.305Z,12.30
2018-08-30T19:45:47.509Z,9.47
2018-08-30T19:50:47.294Z,11.27
2018-08-30T19:53:16.842Z,10.23
2018-08-30T19:55:45.954Z,15.13
2018-08-30T19:58:15.165Z,11.97
2018-08-30T20:00:44.323Z,10.50
2018-08-30T20:03:13.953Z,10.10
2018-08-30T20:05:43.237Z,18.97
2018-08-30T20:08:12.475Z,15.73
2018-08-30T20:10:41.490Z,13.17
2018-08-30T20:13:11.035Z,14.27
2018-08-30T20:15:40.236Z,15.63
2018-08-30T20:18:09.572Z,12.37
2018-08-30T20:20:38.842Z,16.83
2018-08-30T20:23:08.239Z,19.33
2018-08-30T20:25:37.522Z,16.13
2018-08-30T20:28:06.541Z,15.30
2018-08-30T20:30:36.422Z,16.03
2018-08-30T20:33:05.949Z,13.60
2018-08-30T20:36:05.454Z,19.47
2018-08-30T20:38:34.644Z,18.10
2018-08-30T20:41:04.053Z,17.13
2018-08-30T20:43:33.470Z,15.53
2018-08-30T20:46:02.927Z,17.77
2018-08-30T20:48:32.271Z,15.50
2018-08-30T20:51:01.307Z,26.17
2018-08-30T20:53:30.370Z,12.57
2018-08-30T20:55:59.605Z,13.90
2018-08-30T20:58:28.897Z,15.20
2018-08-30T21:00:58.647Z,11.07
2018-08-30T21:03:27.766Z,15.33
2018-08-30T21:05:56.219Z,18.80
2018-08-30T21:08:24.616Z,16.83
2018-08-30T21:10:53.070Z,12.20
2018-08-30T21:13:21.474Z,12.67
2018-08-30T21:15:49.802Z,13.83
2018-08-30T21:18:18.284Z,14.60
2018-08-30T21:20:46.678Z,16.23
2018-08-30T21:23:15.012Z,14.63
2018-08-30T21:25:43.473Z,14.63
2018-08-30T21:28:11.859Z,10.83
2018-08-30T21:30:40.178Z,14.57
2018-08-30T21:33:08.847Z,19.27
2018-08-30T21:35:37.164Z,15.07
2018-08-30T21:38:05.560Z,11.17
2018-08-30T21:40:33.878Z,12.10
2018-08-30T21:43:02.239Z,14.73
2018-08-30T21:45:30.918Z,10.30
2018-08-30T21:47:59.260Z,9.07
2018-08-30T21:50:27.630Z,12.93
2018-08-30T21:52:56.030Z,11.77
2018-08-30T21:55:24.382Z,15.90
2018-08-30T21:57:52.736Z,11.20
2018-08-30T22:00:21.185Z,14.43
2018-08-30T22:02:49.635Z,12.43
2018-08-30T22:05:18.039Z,12.43
2018-08-30T22:07:46.407Z,7.80
2018-08-30T22:10:14.895Z,15.00
2018-08-30T22:12:43.366Z,12.00
2018-08-30T22:15:11.772Z,13.03
2018-08-30T22:17:40.202Z,14.93
2018-08-30T22:20:08.594Z,13.13
2018-08-30T22:22:36.920Z,10.60
2018-08-30T22:25:06.145Z,14.03
2018-08-30T22:27:34.671Z,10.60
2018-08-30T22:30:03.636Z,14.80
2018-08-30T22:32:31.962Z,12.27
2018-08-30T22:35:00.377Z,10.57
2018-08-30T22:37:28.748Z,18.27
2018-08-30T22:39:57.179Z,17.03
2018-08-30T22:42:25.500Z,10.73
2018-08-30T22:44:53.863Z,15.83
2018-08-30T22:47:22.209Z,10.90
2018-08-30T22:49:50.601Z,9.57
2018-08-30T22:52:19.157Z,15.00
2018-08-30T22:54:47.545Z,17.60
2018-08-30T22:57:15.940Z,16.80
2018-08-30T22:59:44.654Z,19.67
2018-08-30T23:02:13.102Z,9.67
2018-08-30T23:04:41.410Z,19.97
2018-08-30T23:07:09.821Z,10.77
2018-08-30T23:09:38.237Z,11.80
2018-08-30T23:12:07.283Z,12.07
2018-08-30T23:14:36.085Z,13.93
2018-08-30T23:17:04.485Z,13.80
2018-08-30T23:19:33.400Z,11.57
2018-08-30T23:22:01.861Z,10.87
2018-08-30T23:24:30.240Z,11.47
2018-08-30T23:26:58.619Z,16.13
2018-08-30T23:29:27.024Z,12.43
2018-08-30T23:31:55.482Z,12.23
2018-08-30T23:34:23.882Z,13.07
2018-08-30T23:36:52.298Z,20.63
2018-08-30T23:39:20.668Z,16.00
2018-08-30T23:41:49.024Z,9.73
2018-08-30T23:44:17.483Z,11.63
2018-08-30T23:46:45.859Z,12.70
2018-08-30T23:49:14.285Z,9.37
2018-08-30T23:51:42.678Z,14.30
2018-08-30T23:54:11.082Z,15.70
2018-08-30T23:56:39.525Z,16.60
2018-08-30T23:59:19.050Z,12.33
